Accueil
METAR-TAF:

METAR-TAF

Aéroports :

Paderborn-Lippstadt, Allemagne

latitude: 51-37N, longitude: 008-37E, altitude: 213 m

Observation

Le bulletin a été fait il y a 36 minutes, à 00:20 UTC
Vent 2 kt de direction variable
Température 8°C
Humidité 87%
Pression 1016 hPa
Visibilité 10 km ou plus
pas de nuages en-dessous de 1500 mètres et pas de cumulonimbus.

METAR: EDLP 240020Z VRB02KT CAVOK 08/06 Q1016

Heure: 02:56 (00:56 UTC)

Prévision

Le bulletin a été fait il y a 1 heure et 56 minutes, à 23:00 UTC
Prévision valable du 24 à 00 UTC au 24 à 24 UTC
Vent 6 kt de sud/sud-ouest
Visibilité 10 km ou plus
Quelques nuages à une hauteur de 4000 ft
Evoluant progressivement
du 24 à 03 UTC au 24 à 06 UTC
Vent 13 kt de ouest/sud-ouest
Evoluant progressivement
du 24 à 15 UTC au 24 à 18 UTC
Vent 6 kt de sud-ouest

TAF: EDLP 232300Z 2400/2424 21006KT 9999 FEW040 BECMG 2403/2406 24013KT BECMG 2415/2418 22006KT

Observations et prévisions météorologiques de plus de 4000 aéroports (messages METAR et TAF).

Les stations disponibles sont représentées par des disques jaunes et rouges sur la carte.

Passer la souris dessus pour voir le nom de la station.

Cliquer dessus pour voir les observations et prévisions météorologiques.

Pour changer de carte: cliquez sur les boutons verts avec une croix noire pour zoomer, sur le bouton vert avec un tiret pour effectuer un zoom arrière, ou sur les flèches vertes pour les cartes adjacentes.


METAR-TAF: